sensor_id;sensor_type;location;lat;lon;timestamp;pressure;altitude;pressure_sealevel;temperature;humidity
69187;BME280;56301;56.864;60.554;2022-12-15T00:01:20;100126.88;;;25.70;36.53
69187;BME280;56301;56.864;60.554;2022-12-15T00:03:43;100116.91;;;25.71;37.25
69187;BME280;56301;56.864;60.554;2022-12-15T00:06:05;100112.47;;;25.70;36.73
69187;BME280;56301;56.864;60.554;2022-12-15T00:08:28;100116.91;;;25.71;36.93
69187;BME280;56301;56.864;60.554;2022-12-15T00:10:50;100106.91;;;25.72;36.71
69187;BME280;56301;56.864;60.554;2022-12-15T00:13:13;100113.31;;;25.70;36.25
69187;BME280;56301;56.864;60.554;2022-12-15T00:15:35;100111.31;;;25.73;36.32
69187;BME280;56301;56.864;60.554;2022-12-15T00:18:02;100103.38;;;25.71;36.37
69187;BME280;56301;56.864;60.554;2022-12-15T00:20:25;100097.94;;;25.71;36.05
69187;BME280;56301;56.864;60.554;2022-12-15T00:22:47;100108.63;;;25.73;35.56
69187;BME280;56301;56.864;60.554;2022-12-15T00:25:10;100099.63;;;25.72;36.14
69187;BME280;56301;56.864;60.554;2022-12-15T00:27:32;100099.78;;;25.70;36.58
69187;BME280;56301;56.864;60.554;2022-12-15T00:29:55;100094.34;;;25.70;36.94
69187;BME280;56301;56.864;60.554;2022-12-15T00:32:17;100094.34;;;25.70;36.38
69187;BME280;56301;56.864;60.554;2022-12-15T00:34:39;100086.09;;;25.72;37.22
69187;BME280;56301;56.864;60.554;2022-12-15T00:37:02;100088.63;;;25.74;37.35
69187;BME280;56301;56.864;60.554;2022-12-15T00:39:24;100078.78;;;25.73;37.12
69187;BME280;56301;56.864;60.554;2022-12-15T00:41:47;100079.81;;;25.72;36.86
69187;BME280;56301;56.864;60.554;2022-12-15T00:44:09;100075.22;;;25.72;37.25
69187;BME280;56301;56.864;60.554;2022-12-15T00:46:31;100081.50;;;25.73;35.45
69187;BME280;56301;56.864;60.554;2022-12-15T00:48:54;100070.34;;;25.76;34.95
69187;BME280;56301;56.864;60.554;2022-12-15T00:51:16;100068.31;;;25.78;35.97
69187;BME280;56301;56.864;60.554;2022-12-15T00:53:39;100073.91;;;25.76;35.59
69187;BME280;56301;56.864;60.554;2022-12-15T00:56:02;100071.69;;;25.72;36.48
69187;BME280;56301;56.864;60.554;2022-12-15T00:58:24;100074.38;;;25.72;36.12
69187;BME280;56301;56.864;60.554;2022-12-15T01:00:47;100073.38;;;25.73;36.38
69187;BME280;56301;56.864;60.554;2022-12-15T01:03:10;100062.53;;;25.73;36.54
69187;BME280;56301;56.864;60.554;2022-12-15T01:05:33;100072.53;;;25.72;36.03
69187;BME280;56301;56.864;60.554;2022-12-15T01:07:57;100066.25;;;25.72;36.19
69187;BME280;56301;56.864;60.554;2022-12-15T01:10:20;100062.69;;;25.71;36.10
69187;BME280;56301;56.864;60.554;2022-12-15T01:12:43;100060.00;;;25.71;36.67
69187;BME280;56301;56.864;60.554;2022-12-15T01:15:06;100049.28;;;25.69;36.16
69187;BME280;56301;56.864;60.554;2022-12-15T01:17:28;100054.72;;;25.69;36.19
69187;BME280;56301;56.864;60.554;2022-12-15T01:19:51;100059.28;;;25.69;36.28
69187;BME280;56301;56.864;60.554;2022-12-15T01:22:13;100063.84;;;25.68;36.65
69187;BME280;56301;56.864;60.554;2022-12-15T01:24:36;100056.41;;;25.70;36.40
69187;BME280;56301;56.864;60.554;2022-12-15T01:26:58;100051.69;;;25.73;35.97
69187;BME280;56301;56.864;60.554;2022-12-15T01:29:20;100059.28;;;25.69;35.37
69187;BME280;56301;56.864;60.554;2022-12-15T01:31:43;100049.91;;;25.63;35.54
69187;BME280;56301;56.864;60.554;2022-12-15T01:34:05;100049.06;;;25.63;35.82
69187;BME280;56301;56.864;60.554;2022-12-15T01:36:28;100041.94;;;25.62;35.84
69187;BME280;56301;56.864;60.554;2022-12-15T01:38:50;100044.84;;;25.60;35.83
69187;BME280;56301;56.864;60.554;2022-12-15T01:41:13;100041.09;;;25.61;36.58
69187;BME280;56301;56.864;60.554;2022-12-15T01:43:36;100041.94;;;25.62;36.25
69187;BME280;56301;56.864;60.554;2022-12-15T01:46:05;100041.09;;;25.61;35.64
69187;BME280;56301;56.864;60.554;2022-12-15T01:48:30;100035.69;;;25.61;35.49
69187;BME280;56301;56.864;60.554;2022-12-15T01:51:03;100030.41;;;25.60;36.50
69187;BME280;56301;56.864;60.554;2022-12-15T01:53:27;100028.22;;;25.63;35.96
69187;BME280;56301;56.864;60.554;2022-12-15T01:55:51;100026.44;;;25.72;36.02
69187;BME280;56301;56.864;60.554;2022-12-15T01:58:15;100016.69;;;25.79;35.98
69187;BME280;56301;56.864;60.554;2022-12-15T02:00:38;100019.75;;;25.84;35.67
69187;BME280;56301;56.864;60.554;2022-12-15T02:03:01;100011.31;;;25.87;36.08
69187;BME280;56301;56.864;60.554;2022-12-15T02:05:25;100006.59;;;25.89;35.40
69187;BME280;56301;56.864;60.554;2022-12-15T02:07:48;100005.38;;;25.92;35.26
69187;BME280;56301;56.864;60.554;2022-12-15T02:10:10;100013.53;;;25.92;35.59
69187;BME280;56301;56.864;60.554;2022-12-15T02:25:43;99991.31;;;25.62;36.76
69187;BME280;56301;56.864;60.554;2022-12-15T02:30:54;99979.94;;;25.59;36.78
69187;BME280;56301;56.864;60.554;2022-12-15T02:33:24;99985.53;;;25.57;36.63
69187;BME280;56301;56.864;60.554;2022-12-15T02:38:13;99985.53;;;25.57;36.68
69187;BME280;56301;56.864;60.554;2022-12-15T02:40:36;99979.25;;;25.57;36.76
69187;BME280;56301;56.864;60.554;2022-12-15T02:42:58;99988.38;;;25.56;36.54
69187;BME280;56301;56.864;60.554;2022-12-15T02:53:23;99986.16;;;25.51;36.40
69187;BME280;56301;56.864;60.554;2022-12-15T02:58:18;99994.59;;;25.48;36.85
69187;BME280;56301;56.864;60.554;2022-12-15T03:01:01;99989.16;;;25.48;36.65
69187;BME280;56301;56.864;60.554;2022-12-15T03:03:25;99994.59;;;25.48;36.47
69187;BME280;56301;56.864;60.554;2022-12-15T03:05:50;99995.59;;;25.47;36.62
69187;BME280;56301;56.864;60.554;2022-12-15T03:08:13;100000.19;;;25.47;36.80
69187;BME280;56301;56.864;60.554;2022-12-15T03:10:35;99997.47;;;25.47;35.96
69187;BME280;56301;56.864;60.554;2022-12-15T03:12:57;99997.63;;;25.45;36.13
69187;BME280;56301;56.864;60.554;2022-12-15T03:15:20;99996.75;;;25.44;36.40
69187;BME280;56301;56.864;60.554;2022-12-15T03:17:42;99985.09;;;25.44;36.68
69187;BME280;56301;56.864;60.554;2022-12-15T03:20:05;100001.34;;;25.44;36.62
69187;BME280;56301;56.864;60.554;2022-12-15T03:22:27;99997.78;;;25.43;36.54
69187;BME280;56301;56.864;60.554;2022-12-15T03:24:50;99986.94;;;25.43;36.54
69187;BME280;56301;56.864;60.554;2022-12-15T03:27:12;99977.97;;;25.43;36.13
69187;BME280;56301;56.864;60.554;2022-12-15T03:29:35;99982.38;;;25.44;36.77
69187;BME280;56301;56.864;60.554;2022-12-15T03:31:57;99985.94;;;25.44;36.31
69187;BME280;56301;56.864;60.554;2022-12-15T03:34:20;99975.09;;;25.44;36.57
69187;BME280;56301;56.864;60.554;2022-12-15T03:36:42;99970.69;;;25.43;36.21
69187;BME280;56301;56.864;60.554;2022-12-15T03:39:05;99975.25;;;25.43;35.90
69187;BME280;56301;56.864;60.554;2022-12-15T03:41:27;99975.25;;;25.43;36.51
69187;BME280;56301;56.864;60.554;2022-12-15T03:43:50;99977.13;;;25.42;35.97
69187;BME280;56301;56.864;60.554;2022-12-15T03:46:12;99980.81;;;25.41;36.41
69187;BME280;56301;56.864;60.554;2022-12-15T03:48:35;99976.28;;;25.42;36.25
69187;BME280;56301;56.864;60.554;2022-12-15T03:50:57;99968.28;;;25.40;36.18
69187;BME280;56301;56.864;60.554;2022-12-15T03:53:20;99974.56;;;25.41;36.23
69187;BME280;56301;56.864;60.554;2022-12-15T03:55:42;99973.72;;;25.40;36.30
69187;BME280;56301;56.864;60.554;2022-12-15T03:58:04;99967.44;;;25.40;36.39
69187;BME280;56301;56.864;60.554;2022-12-15T04:00:27;99945.78;;;25.40;36.17
69187;BME280;56301;56.864;60.554;2022-12-15T04:02:50;99980.81;;;25.41;36.53
69187;BME280;56301;56.864;60.554;2022-12-15T04:05:14;99974.56;;;25.41;36.15
69187;BME280;56301;56.864;60.554;2022-12-15T04:07:36;99980.81;;;25.41;36.02
69187;BME280;56301;56.864;60.554;2022-12-15T04:09:59;99976.41;;;25.40;36.19
69187;BME280;56301;56.864;60.554;2022-12-15T04:12:21;99972.88;;;25.40;35.85
69187;BME280;56301;56.864;60.554;2022-12-15T04:14:43;99976.59;;;25.39;35.81
69187;BME280;56301;56.864;60.554;2022-12-15T04:17:06;99970.34;;;25.38;35.54
69187;BME280;56301;56.864;60.554;2022-12-15T04:19:28;99975.75;;;25.38;35.93
69187;BME280;56301;56.864;60.554;2022-12-15T04:21:51;99977.44;;;25.39;36.10
69187;BME280;56301;56.864;60.554;2022-12-15T04:24:13;99972.88;;;25.40;36.74
69187;BME280;56301;56.864;60.554;2022-12-15T04:26:35;99966.81;;;25.46;35.22
69187;BME280;56301;56.864;60.554;2022-12-15T04:28:58;99962.78;;;25.50;34.43
69187;BME280;56301;56.864;60.554;2022-12-15T04:31:25;99974.94;;;25.46;34.79
69187;BME280;56301;56.864;60.554;2022-12-15T04:33:50;99974.25;;;25.44;36.07
69187;BME280;56301;56.864;60.554;2022-12-15T04:36:12;99973.72;;;25.40;34.97
69187;BME280;56301;56.864;60.554;2022-12-15T04:38:35;99969.44;;;25.38;35.20
69187;BME280;56301;56.864;60.554;2022-12-15T04:40:58;99968.91;;;25.34;34.92
69187;BME280;56301;56.864;60.554;2022-12-15T04:43:21;99919.31;;;25.34;35.54
69187;BME280;56301;56.864;60.554;2022-12-15T04:45:43;99955.53;;;25.33;35.78
69187;BME280;56301;56.864;60.554;2022-12-15T04:48:06;99961.44;;;25.28;35.77
69187;BME280;56301;56.864;60.554;2022-12-15T04:50:28;99962.91;;;25.23;35.52
69187;BME280;56301;56.864;60.554;2022-12-15T04:52:51;99960.53;;;25.19;35.83
69187;BME280;56301;56.864;60.554;2022-12-15T04:55:13;99964.47;;;25.25;35.99
69187;BME280;56301;56.864;60.554;2022-12-15T04:57:36;99958.56;;;25.30;35.96
69187;BME280;56301;56.864;60.554;2022-12-15T04:59:58;99957.00;;;25.27;35.78
69187;BME280;56301;56.864;60.554;2022-12-15T05:02:20;99962.78;;;25.24;35.45
69187;BME280;56301;56.864;60.554;2022-12-15T05:04:43;99961.34;;;25.20;35.67
69187;BME280;56301;56.864;60.554;2022-12-15T05:07:05;99954.44;;;25.17;35.60
69187;BME280;56301;56.864;60.554;2022-12-15T05:09:28;99951.00;;;25.15;35.64
69187;BME280;56301;56.864;60.554;2022-12-15T05:11:50;99944.91;;;25.13;35.66
69187;BME280;56301;56.864;60.554;2022-12-15T05:14:13;99943.91;;;25.14;35.52
69187;BME280;56301;56.864;60.554;2022-12-15T05:16:35;99947.63;;;25.13;35.53
69187;BME280;56301;56.864;60.554;2022-12-15T05:18:58;99939.66;;;25.12;34.79
69187;BME280;56301;56.864;60.554;2022-12-15T05:21:20;99941.50;;;25.11;35.13
69187;BME280;56301;56.864;60.554;2022-12-15T05:23:42;99939.81;;;25.10;34.86
69187;BME280;56301;56.864;60.554;2022-12-15T05:26:05;99943.38;;;25.11;35.10
69187;BME280;56301;56.864;60.554;2022-12-15T05:28:28;99946.06;;;25.11;35.26
69187;BME280;56301;56.864;60.554;2022-12-15T05:30:50;99944.91;;;25.13;35.43
69187;BME280;56301;56.864;60.554;2022-12-15T05:33:13;99942.88;;;25.15;34.87
69187;BME280;56301;56.864;60.554;2022-12-15T05:35:35;99940.50;;;25.12;34.59
69187;BME280;56301;56.864;60.554;2022-12-15T05:37:58;99938.66;;;25.13;35.05
69187;BME280;56301;56.864;60.554;2022-12-15T05:40:20;99937.78;;;25.12;35.04
69187;BME280;56301;56.864;60.554;2022-12-15T05:42:43;99931.50;;;25.12;35.18
69187;BME280;56301;56.864;60.554;2022-12-15T05:45:05;99934.22;;;25.12;34.64
69187;BME280;56301;56.864;60.554;2022-12-15T05:47:28;99926.94;;;25.12;34.34
69187;BME280;56301;56.864;60.554;2022-12-15T05:49:50;99928.81;;;25.12;34.45
69187;BME280;56301;56.864;60.554;2022-12-15T05:52:13;99926.09;;;25.12;34.64
69187;BME280;56301;56.864;60.554;2022-12-15T05:54:35;99927.97;;;25.11;34.50
69187;BME280;56301;56.864;60.554;2022-12-15T05:56:58;99932.53;;;25.11;34.85
69187;BME280;56301;56.864;60.554;2022-12-15T05:59:20;99931.69;;;25.10;34.22
69187;BME280;56301;56.864;60.554;2022-12-15T06:01:42;99929.97;;;25.09;34.69
69187;BME280;56301;56.864;60.554;2022-12-15T06:04:05;99922.81;;;25.08;34.13
69187;BME280;56301;56.864;60.554;2022-12-15T06:06:28;99928.25;;;25.08;34.42
69187;BME280;56301;56.864;60.554;2022-12-15T06:08:50;99938.22;;;25.08;34.68
69187;BME280;56301;56.864;60.554;2022-12-15T06:11:13;99935.69;;;25.06;34.68
69187;BME280;56301;56.864;60.554;2022-12-15T06:13:36;99931.13;;;25.07;34.50
69187;BME280;56301;56.864;60.554;2022-12-15T06:16:00;99932.13;;;25.06;34.61
69187;BME280;56301;56.864;60.554;2022-12-15T06:18:23;99937.56;;;25.06;34.36
69187;BME280;56301;56.864;60.554;2022-12-15T06:20:46;99931.25;;;25.05;34.46
69187;BME280;56301;56.864;60.554;2022-12-15T06:23:09;99933.97;;;25.05;34.46
69187;BME280;56301;56.864;60.554;2022-12-15T06:25:31;99942.09;;;25.05;34.26
69187;BME280;56301;56.864;60.554;2022-12-15T06:27:53;99939.25;;;25.07;34.42
69187;BME280;56301;56.864;60.554;2022-12-15T06:30:16;99941.78;;;25.08;34.47
69187;BME280;56301;56.864;60.554;2022-12-15T06:32:39;99943.50;;;25.09;34.42
69187;BME280;56301;56.864;60.554;2022-12-15T06:35:01;99943.50;;;25.09;34.26
69187;BME280;56301;56.864;60.554;2022-12-15T06:37:24;99937.22;;;25.09;34.00
69187;BME280;56301;56.864;60.554;2022-12-15T06:39:46;99943.50;;;25.09;33.73
69187;BME280;56301;56.864;60.554;2022-12-15T06:42:09;99941.78;;;25.08;33.83
69187;BME280;56301;56.864;60.554;2022-12-15T06:44:31;99947.19;;;25.08;33.68
69187;BME280;56301;56.864;60.554;2022-12-15T06:46:54;99937.22;;;25.09;33.64
69187;BME280;56301;56.864;60.554;2022-12-15T06:49:16;99931.97;;;25.07;33.94
69187;BME280;56301;56.864;60.554;2022-12-15T06:51:39;99931.97;;;25.07;33.92
69187;BME280;56301;56.864;60.554;2022-12-15T06:54:01;99933.81;;;25.07;33.87
69187;BME280;56301;56.864;60.554;2022-12-15T06:56:31;99924.69;;;25.08;33.78
69187;BME280;56301;56.864;60.554;2022-12-15T06:58:54;99922.16;;;25.06;33.86
69187;BME280;56301;56.864;60.554;2022-12-15T07:01:17;99927.56;;;25.06;33.98
69187;BME280;56301;56.864;60.554;2022-12-15T07:03:40;99927.56;;;25.06;34.04
69187;BME280;56301;56.864;60.554;2022-12-15T07:06:06;99913.19;;;25.06;33.65
69187;BME280;56301;56.864;60.554;2022-12-15T07:08:29;99924.84;;;25.06;33.93
69187;BME280;56301;56.864;60.554;2022-12-15T07:10:52;99921.31;;;25.06;33.35
69187;BME280;56301;56.864;60.554;2022-12-15T07:13:14;99916.72;;;25.06;33.42
69187;BME280;56301;56.864;60.554;2022-12-15T07:15:37;99917.72;;;25.05;33.90
69187;BME280;56301;56.864;60.554;2022-12-15T07:18:00;99914.16;;;25.05;33.98
69187;BME280;56301;56.864;60.554;2022-12-15T07:20:22;99910.63;;;25.04;34.00
69187;BME280;56301;56.864;60.554;2022-12-15T07:22:48;99907.91;;;25.04;33.51
69187;BME280;56301;56.864;60.554;2022-12-15T07:25:11;99897.91;;;25.05;33.75
69187;BME280;56301;56.864;60.554;2022-12-15T07:27:33;99895.38;;;25.03;33.63
69187;BME280;56301;56.864;60.554;2022-12-15T07:29:55;99892.50;;;25.05;33.38
69187;BME280;56301;56.864;60.554;2022-12-15T07:32:18;99891.66;;;25.04;33.33
69187;BME280;56301;56.864;60.554;2022-12-15T07:34:41;99888.81;;;25.06;33.84
69187;BME280;56301;56.864;60.554;2022-12-15T07:37:04;99887.78;;;25.07;33.38
69187;BME280;56301;56.864;60.554;2022-12-15T07:39:26;99893.03;;;25.08;33.77
69187;BME280;56301;56.864;60.554;2022-12-15T07:41:48;99884.06;;;25.08;33.18
69187;BME280;56301;56.864;60.554;2022-12-15T07:44:11;99881.34;;;25.08;33.29
69187;BME280;56301;56.864;60.554;2022-12-15T07:46:34;99885.94;;;25.07;33.84
69187;BME280;56301;56.864;60.554;2022-12-15T07:48:56;99885.09;;;25.07;33.47
69187;BME280;56301;56.864;60.554;2022-12-15T07:51:19;99885.09;;;25.07;33.69
69187;BME280;56301;56.864;60.554;2022-12-15T07:53:41;99880.50;;;25.07;33.42
69187;BME280;56301;56.864;60.554;2022-12-15T07:56:04;99873.41;;;25.06;33.38
69187;BME280;56301;56.864;60.554;2022-12-15T07:58:27;99864.25;;;25.07;33.25
69187;BME280;56301;56.864;60.554;2022-12-15T08:00:59;99865.28;;;25.06;33.52
69187;BME280;56301;56.864;60.554;2022-12-15T08:03:22;99869.69;;;25.07;33.35
69187;BME280;56301;56.864;60.554;2022-12-15T08:05:44;99858.84;;;25.07;33.54
69187;BME280;56301;56.864;60.554;2022-12-15T08:08:07;99860.72;;;25.07;33.32
69187;BME280;56301;56.864;60.554;2022-12-15T08:10:29;99850.72;;;25.07;33.68
69187;BME280;56301;56.864;60.554;2022-12-15T08:12:52;99848.03;;;25.07;33.29
69187;BME280;56301;56.864;60.554;2022-12-15T08:15:14;99843.63;;;25.06;33.18
69187;BME280;56301;56.864;60.554;2022-12-15T08:17:36;99840.91;;;25.06;33.28
69187;BME280;56301;56.864;60.554;2022-12-15T08:19:59;99839.19;;;25.05;33.41
69187;BME280;56301;56.864;60.554;2022-12-15T08:22:21;99842.78;;;25.06;33.03
69187;BME280;56301;56.864;60.554;2022-12-15T08:24:44;99844.59;;;25.05;33.58
69187;BME280;56301;56.864;60.554;2022-12-15T08:27:06;99844.59;;;25.05;33.03
69187;BME280;56301;56.864;60.554;2022-12-15T08:29:29;99841.06;;;25.05;33.30
69187;BME280;56301;56.864;60.554;2022-12-15T08:31:51;99835.63;;;25.05;33.08
69187;BME280;56301;56.864;60.554;2022-12-15T08:34:14;99833.78;;;25.05;33.31
69187;BME280;56301;56.864;60.554;2022-12-15T08:36:36;99834.66;;;25.06;33.46
69187;BME280;56301;56.864;60.554;2022-12-15T08:38:59;99833.78;;;25.05;32.65
69187;BME280;56301;56.864;60.554;2022-12-15T08:41:23;99829.22;;;25.06;33.40
69187;BME280;56301;56.864;60.554;2022-12-15T08:43:46;99826.53;;;25.06;33.06
69187;BME280;56301;56.864;60.554;2022-12-15T08:46:08;99830.09;;;25.06;32.67
69187;BME280;56301;56.864;60.554;2022-12-15T08:48:31;99825.66;;;25.05;33.35
69187;BME280;56301;56.864;60.554;2022-12-15T08:50:54;99822.09;;;25.05;32.87
69187;BME280;56301;56.864;60.554;2022-12-15T08:53:17;99822.09;;;25.05;32.81
69187;BME280;56301;56.864;60.554;2022-12-15T08:55:39;99817.53;;;25.05;33.20
69187;BME280;56301;56.864;60.554;2022-12-15T08:58:01;99818.53;;;25.04;33.20
69187;BME280;56301;56.864;60.554;2022-12-15T09:00:24;99819.38;;;25.05;33.26
69187;BME280;56301;56.864;60.554;2022-12-15T09:02:46;99817.69;;;25.04;32.75
69187;BME280;56301;56.864;60.554;2022-12-15T09:05:09;99821.25;;;25.04;33.08
69187;BME280;56301;56.864;60.554;2022-12-15T09:07:31;99821.25;;;25.04;33.45
69187;BME280;56301;56.864;60.554;2022-12-15T09:09:54;99821.25;;;25.04;33.26
69187;BME280;56301;56.864;60.554;2022-12-15T09:12:16;99817.53;;;25.05;33.25
69187;BME280;56301;56.864;60.554;2022-12-15T09:14:38;99812.28;;;25.04;32.76
69187;BME280;56301;56.864;60.554;2022-12-15T09:17:01;99818.53;;;25.04;32.89
69187;BME280;56301;56.864;60.554;2022-12-15T09:19:23;99824.81;;;25.05;33.05
69187;BME280;56301;56.864;60.554;2022-12-15T09:21:46;99819.38;;;25.05;32.90
69187;BME280;56301;56.864;60.554;2022-12-15T09:24:10;99814.81;;;25.05;33.11
69187;BME280;56301;56.864;60.554;2022-12-15T09:26:33;99816.69;;;25.05;32.57
69187;BME280;56301;56.864;60.554;2022-12-15T09:28:55;99805.84;;;25.05;33.20
69187;BME280;56301;56.864;60.554;2022-12-15T09:31:19;99817.53;;;25.05;33.04
69187;BME280;56301;56.864;60.554;2022-12-15T09:33:42;99819.38;;;25.05;33.13
69187;BME280;56301;56.864;60.554;2022-12-15T09:36:05;99814.81;;;25.05;32.99
69187;BME280;56301;56.864;60.554;2022-12-15T09:38:28;99816.69;;;25.05;32.80
69187;BME280;56301;56.864;60.554;2022-12-15T09:40:50;99809.41;;;25.05;33.20
69187;BME280;56301;56.864;60.554;2022-12-15T09:43:14;99801.28;;;25.05;33.19
69187;BME280;56301;56.864;60.554;2022-12-15T09:45:40;99798.75;;;25.04;33.07
69187;BME280;56301;56.864;60.554;2022-12-15T09:48:06;99804.16;;;25.04;32.53
69187;BME280;56301;56.864;60.554;2022-12-15T09:50:35;99808.72;;;25.03;33.00
69187;BME280;56301;56.864;60.554;2022-12-15T09:52:58;99795.19;;;25.03;33.16
69187;BME280;56301;56.864;60.554;2022-12-15T09:55:26;99783.53;;;25.03;32.92
69187;BME280;56301;56.864;60.554;2022-12-15T09:57:55;99778.25;;;25.01;32.87
69187;BME280;56301;56.864;60.554;2022-12-15T10:03:19;99765.72;;;25.00;32.66
69187;BME280;56301;56.864;60.554;2022-12-15T10:08:16;99779.25;;;25.00;32.81
69187;BME280;56301;56.864;60.554;2022-12-15T10:13:10;99779.09;;;25.02;32.61
69187;BME280;56301;56.864;60.554;2022-12-15T10:15:48;99772.81;;;25.01;32.83
69187;BME280;56301;56.864;60.554;2022-12-15T10:18:25;99767.41;;;25.01;32.97
69187;BME280;56301;56.864;60.554;2022-12-15T10:20:51;99769.13;;;25.02;32.73
69187;BME280;56301;56.864;60.554;2022-12-15T10:23:15;99759.28;;;25.01;32.48
69187;BME280;56301;56.864;60.554;2022-12-15T10:25:38;99755.75;;;25.01;32.47
69187;BME280;56301;56.864;60.554;2022-12-15T10:28:09;99752.19;;;25.00;32.32
69187;BME280;56301;56.864;60.554;2022-12-15T10:30:41;99751.84;;;24.95;32.83
69187;BME280;56301;56.864;60.554;2022-12-15T10:33:11;99767.41;;;25.01;32.75
69187;BME280;56301;56.864;60.554;2022-12-15T10:35:36;99772.81;;;25.01;32.81
69187;BME280;56301;56.864;60.554;2022-12-15T10:38:00;99758.44;;;25.01;32.26
69187;BME280;56301;56.864;60.554;2022-12-15T10:43:03;99760.13;;;25.02;32.62
69187;BME280;56301;56.864;60.554;2022-12-15T10:45:42;99761.00;;;25.02;33.19
69187;BME280;56301;56.864;60.554;2022-12-15T10:48:05;99767.41;;;25.01;32.71
69187;BME280;56301;56.864;60.554;2022-12-15T10:50:28;99765.72;;;25.00;32.31
69187;BME280;56301;56.864;60.554;2022-12-15T10:52:50;99764.72;;;25.01;32.52
69187;BME280;56301;56.864;60.554;2022-12-15T10:57:57;99765.72;;;25.00;32.63
69187;BME280;56301;56.864;60.554;2022-12-15T11:00:25;99758.63;;;24.99;32.43
69187;BME280;56301;56.864;60.554;2022-12-15T11:02:47;99757.06;;;24.96;32.60
69187;BME280;56301;56.864;60.554;2022-12-15T11:07:34;99760.63;;;24.97;32.50
69187;BME280;56301;56.864;60.554;2022-12-15T11:09:58;99768.75;;;24.97;32.72
69187;BME280;56301;56.864;60.554;2022-12-15T11:12:21;99754.38;;;24.96;32.19
69187;BME280;56301;56.864;60.554;2022-12-15T11:14:46;99749.81;;;24.97;32.72
69187;BME280;56301;56.864;60.554;2022-12-15T11:17:12;99746.25;;;24.96;32.63
69187;BME280;56301;56.864;60.554;2022-12-15T11:19:39;99747.09;;;24.97;32.30
69187;BME280;56301;56.864;60.554;2022-12-15T11:22:08;99745.41;;;24.96;32.78
69187;BME280;56301;56.864;60.554;2022-12-15T11:24:39;99745.41;;;24.96;32.55
69187;BME280;56301;56.864;60.554;2022-12-15T11:27:12;99748.13;;;24.96;32.84
69187;BME280;56301;56.864;60.554;2022-12-15T11:32:01;99739.28;;;24.94;32.73
69187;BME280;56301;56.864;60.554;2022-12-15T11:34:32;99723.03;;;24.94;32.13
69187;BME280;56301;56.864;60.554;2022-12-15T11:54:54;99738.63;;;24.92;32.39
69187;BME280;56301;56.864;60.554;2022-12-15T12:00:03;99729.78;;;24.90;32.05
69187;BME280;56301;56.864;60.554;2022-12-15T12:18:06;99741.63;;;24.89;32.27
69187;BME280;56301;56.864;60.554;2022-12-15T12:23:03;99748.91;;;24.88;31.88
69187;BME280;56301;56.864;60.554;2022-12-15T12:25:26;99748.06;;;24.88;31.87
69187;BME280;56301;56.864;60.554;2022-12-15T12:27:55;99747.19;;;24.87;32.40
69187;BME280;56301;56.864;60.554;2022-12-15T12:30:20;99740.94;;;24.87;32.02
69187;BME280;56301;56.864;60.554;2022-12-15T12:35:08;99726.56;;;24.86;31.98
69187;BME280;56301;56.864;60.554;2022-12-15T12:37:47;99731.13;;;24.86;32.09
69187;BME280;56301;56.864;60.554;2022-12-15T12:40:17;99729.28;;;24.86;32.12
69187;BME280;56301;56.864;60.554;2022-12-15T12:42:41;99724.03;;;24.85;32.01
69187;BME280;56301;56.864;60.554;2022-12-15T12:45:11;99723.00;;;24.86;31.89
69187;BME280;56301;56.864;60.554;2022-12-15T12:47:35;99725.72;;;24.86;32.25
69187;BME280;56301;56.864;60.554;2022-12-15T12:50:19;99725.03;;;24.84;32.06
69187;BME280;56301;56.864;60.554;2022-12-15T12:52:52;99730.28;;;24.85;32.17
69187;BME280;56301;56.864;60.554;2022-12-15T12:57:46;99725.91;;;24.84;31.69
69187;BME280;56301;56.864;60.554;2022-12-15T13:00:14;99721.47;;;24.83;31.64
69187;BME280;56301;56.864;60.554;2022-12-15T13:02:38;99720.63;;;24.83;31.83
69187;BME280;56301;56.864;60.554;2022-12-15T13:07:49;99722.34;;;24.84;31.78
69187;BME280;56301;56.864;60.554;2022-12-15T13:10:18;99721.31;;;24.85;31.74
69187;BME280;56301;56.864;60.554;2022-12-15T13:12:45;99725.91;;;24.84;31.59
69187;BME280;56301;56.864;60.554;2022-12-15T13:17:50;99726.56;;;24.86;32.31
69187;BME280;56301;56.864;60.554;2022-12-15T13:20:18;99702.47;;;24.75;32.43
69187;BME280;56301;56.864;60.554;2022-12-15T13:22:41;99722.00;;;24.87;32.03
69187;BME280;56301;56.864;60.554;2022-12-15T13:27:49;99723.72;;;24.88;32.17
69187;BME280;56301;56.864;60.554;2022-12-15T13:30:13;99718.28;;;24.88;32.03
69187;BME280;56301;56.864;60.554;2022-12-15T13:32:37;99715.72;;;24.86;31.82
69187;BME280;56301;56.864;60.554;2022-12-15T13:35:22;99719.28;;;24.87;31.90
69187;BME280;56301;56.864;60.554;2022-12-15T13:37:51;99722.84;;;24.87;31.82
69187;BME280;56301;56.864;60.554;2022-12-15T13:40:24;99711.16;;;24.87;31.86
69187;BME280;56301;56.864;60.554;2022-12-15T13:42:54;99712.00;;;24.87;31.48
69187;BME280;56301;56.864;60.554;2022-12-15T13:45:23;99693.06;;;24.87;31.86
69187;BME280;56301;56.864;60.554;2022-12-15T13:47:50;99710.19;;;24.88;31.54
69187;BME280;56301;56.864;60.554;2022-12-15T13:50:17;99701.19;;;24.87;31.93
69187;BME280;56301;56.864;60.554;2022-12-15T13:52:47;99701.19;;;24.87;31.84
69187;BME280;56301;56.864;60.554;2022-12-15T13:55:15;99697.63;;;24.87;32.03
69187;BME280;56301;56.864;60.554;2022-12-15T13:57:42;99689.50;;;24.87;31.47
69187;BME280;56301;56.864;60.554;2022-12-15T14:00:18;99700.34;;;24.87;31.93
69187;BME280;56301;56.864;60.554;2022-12-15T14:02:41;99705.75;;;24.87;31.78
69187;BME280;56301;56.864;60.554;2022-12-15T14:05:04;99697.63;;;24.87;31.47
69187;BME280;56301;56.864;60.554;2022-12-15T14:07:27;99700.34;;;24.87;31.68
69187;BME280;56301;56.864;60.554;2022-12-15T14:09:50;99695.94;;;24.86;31.79